createdAt,value
2019-06-10T00:00:37.473Z,22.40
2019-06-10T00:03:06.001Z,22.40
2019-06-10T00:05:33.345Z,22.40
2019-06-10T00:08:02.124Z,22.40
2019-06-10T00:10:31.104Z,22.40
2019-06-10T00:12:58.115Z,22.40
2019-06-10T00:15:25.176Z,22.40
2019-06-10T00:18:07.033Z,22.40
2019-06-10T00:20:21.639Z,22.40
2019-06-10T00:22:51.361Z,22.40
2019-06-10T00:25:17.736Z,22.40
2019-06-10T00:27:44.905Z,22.40
2019-06-10T00:30:12.303Z,22.40
2019-06-10T00:32:41.191Z,22.40
2019-06-10T00:35:10.092Z,22.40
2019-06-10T00:37:37.268Z,22.40
2019-06-10T00:40:05.941Z,22.30
2019-06-10T00:42:33.111Z,22.30
2019-06-10T00:45:02.696Z,22.40
2019-06-10T00:47:30.749Z,22.40
2019-06-10T00:49:57.967Z,22.30
2019-06-10T00:52:25.040Z,22.40
2019-06-10T00:54:52.123Z,22.30
2019-06-10T00:57:20.910Z,22.30
2019-06-10T00:59:50.656Z,22.30
2019-06-10T01:02:17.069Z,22.40
2019-06-10T01:04:44.160Z,22.30
2019-06-10T01:07:13.336Z,22.30
2019-06-10T01:09:41.273Z,22.30
2019-06-10T01:12:09.061Z,22.30
2019-06-10T01:14:36.411Z,22.30
2019-06-10T01:17:03.616Z,22.30
2019-06-10T01:19:31.131Z,22.30
2019-06-10T01:21:58.367Z,22.30
2019-06-10T01:24:25.462Z,22.30
2019-06-10T01:26:52.523Z,22.30
2019-06-10T01:29:21.057Z,22.30
2019-06-10T01:31:48.441Z,22.30
2019-06-10T01:34:15.509Z,22.30
2019-06-10T01:36:42.608Z,22.30
2019-06-10T01:39:11.985Z,22.30
2019-06-10T01:41:40.766Z,22.30
2019-06-10T01:44:08.466Z,22.30
2019-06-10T01:46:35.816Z,22.30
2019-06-10T01:49:02.881Z,22.30
2019-06-10T01:51:31.671Z,22.30
2019-06-10T01:54:01.189Z,22.30
2019-06-10T01:56:27.754Z,22.30
2019-06-10T01:58:54.964Z,22.30
2019-06-10T02:01:23.422Z,22.30
2019-06-10T02:03:51.871Z,22.30
2019-06-10T02:06:22.122Z,22.30
2019-06-10T02:08:48.064Z,22.30
2019-06-10T02:11:17.282Z,22.30
2019-06-10T02:13:43.926Z,22.30
2019-06-10T02:16:14.084Z,22.30
2019-06-10T02:18:42.226Z,22.30
2019-06-10T02:21:11.555Z,22.30
2019-06-10T02:23:37.497Z,22.30
2019-06-10T02:26:04.556Z,22.30
2019-06-10T02:28:32.114Z,22.30
2019-06-10T02:31:03.490Z,22.30
2019-06-10T02:33:32.417Z,22.30
2019-06-10T02:35:56.960Z,22.30
2019-06-10T02:38:33.193Z,22.30
2019-06-10T02:40:53.875Z,22.30
2019-06-10T02:43:29.416Z,22.30
2019-06-10T02:45:52.903Z,22.30
2019-06-10T02:48:21.931Z,22.30
2019-06-10T02:50:47.650Z,22.30
2019-06-10T02:53:15.881Z,22.30
2019-06-10T02:55:43.544Z,22.30
2019-06-10T02:58:13.618Z,22.30
2019-06-10T03:00:47.439Z,22.20
2019-06-10T03:03:08.415Z,22.30
2019-06-10T03:05:40.794Z,22.20
2019-06-10T03:08:04.459Z,22.30
2019-06-10T03:10:36.642Z,22.20
2019-06-10T03:13:02.418Z,22.30
2019-06-10T03:15:29.100Z,22.30
2019-06-10T03:17:56.331Z,22.30
2019-06-10T03:20:25.885Z,22.20
2019-06-10T03:22:52.547Z,22.20
2019-06-10T03:25:20.927Z,22.30
2019-06-10T03:27:48.616Z,22.20
2019-06-10T03:30:22.133Z,22.20
2019-06-10T03:32:46.973Z,22.20
2019-06-10T03:35:13.427Z,22.20
2019-06-10T03:37:42.363Z,22.20
2019-06-10T03:40:09.381Z,22.20
2019-06-10T03:42:36.487Z,22.20
2019-06-10T03:45:03.543Z,22.30
2019-06-10T03:47:32.466Z,22.20
2019-06-10T03:49:59.418Z,22.20
2019-06-10T03:52:27.224Z,22.20
2019-06-10T03:54:55.270Z,22.20
2019-06-10T03:57:24.196Z,22.20
2019-06-10T03:59:52.786Z,22.20
2019-06-10T04:02:22.398Z,22.20
2019-06-10T04:04:48.894Z,22.20
2019-06-10T04:07:15.990Z,22.20
2019-06-10T04:09:43.077Z,22.20
2019-06-10T04:12:12.453Z,22.20
2019-06-10T04:14:38.963Z,22.20
2019-06-10T04:17:06.551Z,22.20
2019-06-10T04:19:33.825Z,22.20
2019-06-10T04:22:02.589Z,22.20
2019-06-10T04:24:29.693Z,22.20
2019-06-10T04:26:56.761Z,22.20
2019-06-10T04:29:25.673Z,22.20
2019-06-10T04:31:52.929Z,22.20
2019-06-10T04:34:20.484Z,22.20
2019-06-10T04:36:48.770Z,22.20
2019-06-10T04:39:15.934Z,22.20
2019-06-10T04:41:42.986Z,22.20
2019-06-10T04:44:10.083Z,22.20
2019-06-10T04:46:37.275Z,22.20
2019-06-10T04:49:04.526Z,22.20
2019-06-10T04:51:32.844Z,22.20
2019-06-10T04:54:02.767Z,22.20
2019-06-10T04:56:29.340Z,22.20
2019-06-10T04:58:57.645Z,22.20
2019-06-10T05:01:26.999Z,22.20
2019-06-10T05:03:53.522Z,22.20
2019-06-10T05:06:21.698Z,22.20
2019-06-10T05:08:49.403Z,22.20
2019-06-10T05:11:16.490Z,22.20
2019-06-10T05:13:43.548Z,22.20
2019-06-10T05:16:12.639Z,22.20
2019-06-10T05:18:39.544Z,22.20
2019-06-10T05:21:06.619Z,22.20
2019-06-10T05:23:33.736Z,22.20
2019-06-10T05:26:02.744Z,22.20
2019-06-10T05:28:30.320Z,22.20
2019-06-10T05:30:57.648Z,22.20
2019-06-10T05:33:26.006Z,22.20
2019-06-10T05:35:53.523Z,22.20
2019-06-10T05:38:23.447Z,22.20
2019-06-10T05:40:51.969Z,22.20
2019-06-10T05:43:18.230Z,22.20
2019-06-10T05:45:45.326Z,22.20
2019-06-10T05:48:16.622Z,22.20
2019-06-10T05:50:42.772Z,22.20
2019-06-10T05:53:10.058Z,22.20
2019-06-10T05:55:37.131Z,22.20
2019-06-10T05:58:04.195Z,22.20
2019-06-10T06:00:33.458Z,22.20
2019-06-10T06:03:02.629Z,22.20
2019-06-10T06:05:30.174Z,22.20
2019-06-10T06:08:04.762Z,22.20
2019-06-10T06:10:27.264Z,22.20
2019-06-10T06:12:54.642Z,22.20
2019-06-10T06:15:22.113Z,22.20
2019-06-10T06:18:05.701Z,22.20
2019-06-10T06:20:18.136Z,22.20
2019-06-10T06:22:45.236Z,22.20
2019-06-10T06:25:15.057Z,22.20
2019-06-10T06:27:42.111Z,22.20
2019-06-10T06:30:13.780Z,22.20
2019-06-10T06:32:38.307Z,22.20
2019-06-10T06:35:05.491Z,22.20
2019-06-10T06:37:35.912Z,22.20
2019-06-10T06:40:02.848Z,22.20
2019-06-10T06:42:32.356Z,22.20
2019-06-10T06:44:58.791Z,22.20
2019-06-10T06:47:25.899Z,22.20
2019-06-10T06:49:53.228Z,22.20
2019-06-10T06:52:38.929Z,22.20
2019-06-10T06:54:49.314Z,22.20
2019-06-10T06:57:16.423Z,22.20
2019-06-10T06:59:43.497Z,22.20
2019-06-10T07:02:12.377Z,22.20
2019-06-10T07:04:40.476Z,22.20
2019-06-10T07:07:07.717Z,22.20
2019-06-10T07:09:36.188Z,22.30
2019-06-10T07:12:03.580Z,22.30
2019-06-10T07:14:33.780Z,22.30
2019-06-10T07:16:59.461Z,22.30
2019-06-10T07:19:26.563Z,22.40
2019-06-10T07:22:08.735Z,22.40
2019-06-10T07:24:23.204Z,22.40
2019-06-10T07:26:54.610Z,22.40
2019-06-10T07:29:19.241Z,22.50
2019-06-10T07:31:50.112Z,22.50
2019-06-10T07:34:15.308Z,22.50
2019-06-10T07:36:44.026Z,22.50
2019-06-10T07:39:13.330Z,22.50
2019-06-10T07:41:41.323Z,22.60
2019-06-10T07:44:08.803Z,22.60
2019-06-10T07:46:36.630Z,22.50
2019-06-10T07:49:04.663Z,22.60
2019-06-10T07:51:32.901Z,22.50
2019-06-10T07:54:03.148Z,22.50
2019-06-10T07:56:36.278Z,22.50
2019-06-10T07:58:58.696Z,22.50
2019-06-10T08:01:26.053Z,22.50
2019-06-10T08:03:53.284Z,22.60
2019-06-10T08:06:22.789Z,22.60
2019-06-10T08:08:49.671Z,22.50
2019-06-10T08:11:17.038Z,22.50
2019-06-10T08:13:46.203Z,22.50
2019-06-10T08:16:13.307Z,22.50
2019-06-10T08:19:07.812Z,22.50
2019-06-10T08:21:09.416Z,22.50
2019-06-10T08:23:37.349Z,22.50
2019-06-10T08:26:05.416Z,22.50
2019-06-10T08:28:33.294Z,22.50
2019-06-10T08:31:03.390Z,22.50
2019-06-10T08:33:30.052Z,22.50
2019-06-10T08:36:00.413Z,22.50
2019-06-10T08:38:26.004Z,22.50
2019-06-10T08:40:53.075Z,22.50
2019-06-10T08:43:22.442Z,22.50
2019-06-10T08:45:48.989Z,22.50
2019-06-10T08:48:16.258Z,22.50
2019-06-10T08:50:46.619Z,22.50
2019-06-10T08:53:15.557Z,22.40
2019-06-10T08:55:44.363Z,22.50
2019-06-10T08:58:09.738Z,22.50
2019-06-10T09:00:37.397Z,22.40
2019-06-10T09:03:05.690Z,22.40
2019-06-10T09:05:32.771Z,22.50
2019-06-10T09:08:02.559Z,22.50
2019-06-10T09:10:28.880Z,22.50
2019-06-10T09:12:55.961Z,22.50
2019-06-10T09:15:23.626Z,22.50
2019-06-10T09:17:55.310Z,22.50
2019-06-10T09:20:19.639Z,22.50
2019-06-10T09:22:53.288Z,22.50
2019-06-10T09:25:18.729Z,22.60
2019-06-10T09:27:47.975Z,22.60
2019-06-10T09:30:14.562Z,22.60
2019-06-10T09:32:46.582Z,22.60
2019-06-10T09:35:12.614Z,22.70
2019-06-10T09:37:39.962Z,22.70
2019-06-10T09:40:08.200Z,22.80
2019-06-10T09:42:35.313Z,22.80
2019-06-10T09:45:02.703Z,22.80
2019-06-10T09:47:29.932Z,22.80
2019-06-10T09:49:57.204Z,22.80
2019-06-10T09:52:24.313Z,22.90
2019-06-10T09:54:56.538Z,22.90
2019-06-10T09:57:20.191Z,22.90
2019-06-10T09:59:51.340Z,22.90
2019-06-10T10:02:16.608Z,22.90
2019-06-10T10:04:47.739Z,22.90
2019-06-10T10:07:12.485Z,22.90
2019-06-10T10:09:42.093Z,22.90
2019-06-10T10:12:08.488Z,22.90
2019-06-10T10:14:35.614Z,22.90
2019-06-10T10:17:04.823Z,22.90
2019-06-10T10:19:31.661Z,22.90
2019-06-10T10:21:58.838Z,22.90
2019-06-10T10:24:26.010Z,22.90
2019-06-10T10:26:57.378Z,22.90
2019-06-10T10:29:22.068Z,22.90
2019-06-10T10:31:52.107Z,22.90
2019-06-10T10:34:17.931Z,22.90
2019-06-10T10:36:47.087Z,22.90
2019-06-10T10:39:14.148Z,22.90
2019-06-10T10:41:43.192Z,22.90
2019-06-10T10:44:10.151Z,22.90
2019-06-10T10:46:37.212Z,22.90
2019-06-10T10:49:04.339Z,22.90
2019-06-10T10:51:32.683Z,23.00
2019-06-10T10:54:20.927Z,23.00
2019-06-10T10:56:28.878Z,22.90
2019-06-10T10:58:58.478Z,23.00
2019-06-10T11:01:24.743Z,22.90
2019-06-10T11:03:56.950Z,22.90
2019-06-10T11:06:23.119Z,22.90
2019-06-10T11:08:49.984Z,22.90
2019-06-10T11:11:17.203Z,22.90
2019-06-10T11:13:45.440Z,22.90
2019-06-10T11:16:14.477Z,22.90
2019-06-10T11:18:42.295Z,22.90
2019-06-10T11:21:09.690Z,22.90
2019-06-10T11:23:36.984Z,22.90
2019-06-10T11:26:04.110Z,22.90
2019-06-10T11:28:32.101Z,22.90
2019-06-10T11:30:59.527Z,22.90
2019-06-10T11:33:26.628Z,22.90
2019-06-10T11:35:56.672Z,22.90
2019-06-10T11:38:23.411Z,22.90
2019-06-10T11:40:54.348Z,22.90
2019-06-10T11:43:22.090Z,22.90
2019-06-10T11:45:54.103Z,22.90
2019-06-10T11:48:17.258Z,22.90
2019-06-10T11:50:44.354Z,22.90
2019-06-10T11:53:12.832Z,23.00
2019-06-10T11:55:42.260Z,23.00
2019-06-10T11:58:09.124Z,23.00
2019-06-10T12:00:36.406Z,23.00
2019-06-10T12:03:03.662Z,23.00
2019-06-10T12:05:32.691Z,23.00
2019-06-10T12:08:01.866Z,23.00
2019-06-10T12:10:28.501Z,23.00
2019-06-10T12:12:59.602Z,23.00
2019-06-10T12:15:24.882Z,23.00
2019-06-10T12:17:58.585Z,22.90
2019-06-10T12:20:22.858Z,22.90
2019-06-10T12:22:49.644Z,22.90
2019-06-10T12:25:31.342Z,22.90
2019-06-10T12:27:45.955Z,22.90
2019-06-10T12:30:13.250Z,22.80
2019-06-10T12:32:42.564Z,22.80
2019-06-10T12:35:09.780Z,22.90
2019-06-10T12:37:36.870Z,22.80
2019-06-10T12:40:05.723Z,22.80
2019-06-10T12:42:33.008Z,22.90
2019-06-10T12:45:03.689Z,22.80
2019-06-10T12:47:29.264Z,22.80
2019-06-10T12:49:57.622Z,22.80
2019-06-10T12:52:25.154Z,22.90
2019-06-10T12:54:53.323Z,22.90
2019-06-10T12:57:22.847Z,22.80
2019-06-10T12:59:49.407Z,22.80
2019-06-10T13:02:23.067Z,22.80
2019-06-10T13:04:47.568Z,22.80
2019-06-10T13:07:16.357Z,22.80
2019-06-10T13:09:43.981Z,22.80
2019-06-10T13:12:12.992Z,22.80
2019-06-10T13:14:42.920Z,22.90
2019-06-10T13:17:10.216Z,22.90
2019-06-10T13:19:37.247Z,22.80
2019-06-10T13:22:06.108Z,22.80
2019-06-10T13:24:33.869Z,22.80
2019-06-10T13:27:03.446Z,22.80
2019-06-10T13:29:30.291Z,22.80
2019-06-10T13:31:58.033Z,22.80
2019-06-10T13:34:25.337Z,22.80
2019-06-10T13:36:52.980Z,22.80
2019-06-10T13:39:22.270Z,22.80
2019-06-10T13:41:49.586Z,22.80
2019-06-10T13:44:16.905Z,22.80
2019-06-10T13:46:44.163Z,22.80
2019-06-10T13:49:14.724Z,22.80
2019-06-10T13:51:40.138Z,22.80
2019-06-10T13:54:09.269Z,22.80
2019-06-10T13:56:46.372Z,22.80
2019-06-10T13:59:07.509Z,22.80
2019-06-10T14:01:35.076Z,22.80
2019-06-10T14:04:09.924Z,22.80
2019-06-10T14:06:42.688Z,22.80
2019-06-10T14:09:07.667Z,22.80
2019-06-10T14:11:33.061Z,22.80
2019-06-10T14:13:59.438Z,22.80
2019-06-10T14:16:26.522Z,22.80
2019-06-10T14:21:45.916Z,22.80
2019-06-10T14:24:15.998Z,22.80
2019-06-10T14:26:44.821Z,22.80
2019-06-10T14:29:15.411Z,22.80
2019-06-10T14:31:46.904Z,22.80
2019-06-10T14:34:12.093Z,22.80
2019-06-10T14:36:38.845Z,22.80
2019-06-10T14:39:06.215Z,22.80
2019-06-10T14:41:33.448Z,22.80
2019-06-10T14:44:00.545Z,22.90
2019-06-10T14:46:27.692Z,23.00
2019-06-10T14:48:54.737Z,23.00
2019-06-10T14:51:22.910Z,23.00
2019-06-10T14:53:50.278Z,23.00
2019-06-10T14:56:19.665Z,23.00
2019-06-10T14:58:47.307Z,23.00
2019-06-10T15:01:24.403Z,22.90
2019-06-10T15:03:43.228Z,23.00
2019-06-10T15:06:11.336Z,22.90
2019-06-10T15:08:38.694Z,22.90
2019-06-10T15:11:05.772Z,22.90
2019-06-10T15:13:33.032Z,22.90
2019-06-10T15:16:04.028Z,22.90
2019-06-10T15:18:28.967Z,22.90
2019-06-10T15:20:56.136Z,22.90
2019-06-10T15:23:23.845Z,22.80
2019-06-10T15:25:55.892Z,22.80
2019-06-10T15:28:21.110Z,22.90
2019-06-10T15:30:48.805Z,22.80
2019-06-10T15:33:16.958Z,22.90
2019-06-10T15:35:44.663Z,22.80
2019-06-10T15:38:15.071Z,22.80
2019-06-10T15:40:43.134Z,22.80
2019-06-10T15:43:09.668Z,22.80
2019-06-10T15:45:36.944Z,22.80
2019-06-10T15:48:04.019Z,22.80
2019-06-10T15:50:32.363Z,22.80
2019-06-10T15:52:59.689Z,22.80
2019-06-10T15:55:49.240Z,22.80
2019-06-10T15:57:55.526Z,22.80
2019-06-10T16:00:28.797Z,22.80
2019-06-10T16:02:51.559Z,22.70
2019-06-10T16:05:19.098Z,22.80
2019-06-10T16:07:47.543Z,22.70
2019-06-10T16:10:17.799Z,22.70
2019-06-10T16:12:43.820Z,22.70
2019-06-10T16:15:13.342Z,22.70
2019-06-10T16:17:42.870Z,22.80
2019-06-10T16:20:08.769Z,22.70
2019-06-10T16:22:35.905Z,22.70
2019-06-10T16:25:03.410Z,22.80
2019-06-10T16:27:46.879Z,22.80
2019-06-10T16:29:59.610Z,22.80
2019-06-10T16:32:26.714Z,22.80
2019-06-10T16:34:53.779Z,22.80
2019-06-10T16:37:23.456Z,22.80
2019-06-10T16:39:49.681Z,22.80
2019-06-10T16:42:17.436Z,22.80
2019-06-10T16:44:44.731Z,22.80
2019-06-10T16:47:12.689Z,22.80
2019-06-10T16:49:39.841Z,22.80
2019-06-10T16:52:06.923Z,22.80
2019-06-10T16:54:33.997Z,22.80
2019-06-10T16:57:03.818Z,22.80
2019-06-10T16:59:30.810Z,22.80
2019-06-10T17:01:58.837Z,22.70
2019-06-10T17:04:27.727Z,22.60
2019-06-10T17:06:54.969Z,22.50
2019-06-10T17:09:23.522Z,22.60
2019-06-10T17:11:52.985Z,22.60
2019-06-10T17:14:20.066Z,22.70
2019-06-10T17:16:47.354Z,22.70
2019-06-10T17:19:14.505Z,22.70
2019-06-10T17:21:42.217Z,22.70
2019-06-10T17:24:09.524Z,22.70
2019-06-10T17:26:38.246Z,22.70
2019-06-10T17:29:05.785Z,22.70
2019-06-10T17:31:35.210Z,22.70
2019-06-10T17:34:02.665Z,22.70
2019-06-10T17:36:32.677Z,22.80
2019-06-10T17:38:58.907Z,22.80
2019-06-10T17:41:28.979Z,22.80
2019-06-10T17:43:55.139Z,22.80
2019-06-10T17:46:25.038Z,22.80
2019-06-10T17:48:52.960Z,22.80
2019-06-10T17:51:22.355Z,22.80
2019-06-10T17:53:48.820Z,22.80
2019-06-10T17:56:15.920Z,22.80
2019-06-10T17:58:53.254Z,22.80
2019-06-10T18:01:12.937Z,22.80
2019-06-10T18:03:43.019Z,22.80
2019-06-10T18:06:10.059Z,22.80
2019-06-10T18:08:40.579Z,22.80
2019-06-10T18:11:06.240Z,22.80
2019-06-10T18:13:35.884Z,22.80
2019-06-10T18:16:02.819Z,22.80
2019-06-10T18:18:30.572Z,22.80
2019-06-10T18:20:59.306Z,22.80
2019-06-10T18:23:26.512Z,22.80
2019-06-10T18:25:53.865Z,22.80
2019-06-10T18:28:22.587Z,22.80
2019-06-10T18:30:52.820Z,22.80
2019-06-10T18:33:19.152Z,22.80
2019-06-10T18:35:46.248Z,22.80
2019-06-10T18:38:13.324Z,22.80
2019-06-10T18:40:42.922Z,22.70
2019-06-10T18:43:09.497Z,22.80
2019-06-10T18:45:38.471Z,22.80
2019-06-10T18:48:06.664Z,22.80
2019-06-10T18:50:36.131Z,22.70
2019-06-10T18:53:04.177Z,22.70
2019-06-10T18:55:35.936Z,22.80
2019-06-10T18:58:02.447Z,22.80
2019-06-10T19:00:44.993Z,22.70
2019-06-10T19:03:10.496Z,22.70
2019-06-10T19:05:26.966Z,22.70
2019-06-10T19:07:54.118Z,22.70
2019-06-10T19:10:23.058Z,22.70
2019-06-10T19:12:49.980Z,22.70
2019-06-10T19:15:17.287Z,22.70
2019-06-10T19:17:44.516Z,22.70
2019-06-10T19:20:12.958Z,22.70
2019-06-10T19:22:43.235Z,22.70
2019-06-10T19:25:12.726Z,22.70
2019-06-10T19:27:40.528Z,22.70
2019-06-10T19:30:08.418Z,22.70
2019-06-10T19:32:36.766Z,22.70
2019-06-10T19:35:06.966Z,22.70
2019-06-10T19:37:35.678Z,22.70
2019-06-10T19:40:02.102Z,22.70
2019-06-10T19:42:29.228Z,22.70
2019-06-10T19:44:56.402Z,22.70
2019-06-10T19:47:23.669Z,22.70
2019-06-10T19:49:52.231Z,22.70
2019-06-10T19:52:19.572Z,22.70
2019-06-10T19:54:46.703Z,22.70
2019-06-10T19:57:13.771Z,22.70
2019-06-10T19:59:57.936Z,22.70
2019-06-10T20:02:10.103Z,22.70
2019-06-10T20:04:37.748Z,22.70
2019-06-10T20:07:04.913Z,22.70
2019-06-10T20:09:32.895Z,22.70
2019-06-10T20:12:02.209Z,22.70
2019-06-10T20:14:32.128Z,22.70
2019-06-10T20:17:03.184Z,22.70
2019-06-10T20:19:32.515Z,22.70
2019-06-10T20:21:58.996Z,22.70
2019-06-10T20:24:26.077Z,22.70
2019-06-10T20:26:53.196Z,22.70
2019-06-10T20:29:22.160Z,22.70
2019-06-10T20:31:49.252Z,22.70
2019-06-10T20:34:17.778Z,22.70
2019-06-10T20:36:45.725Z,22.70
2019-06-10T20:39:13.862Z,22.70
2019-06-10T20:41:44.296Z,22.70
2019-06-10T20:44:09.859Z,22.70
2019-06-10T20:46:36.963Z,22.70
2019-06-10T20:49:04.264Z,22.60
2019-06-10T20:51:36.505Z,22.70
2019-06-10T20:54:02.501Z,22.60
2019-06-10T20:56:28.952Z,22.60
2019-06-10T20:58:56.102Z,22.60
2019-06-10T21:01:25.379Z,22.60
2019-06-10T21:03:54.184Z,22.60
2019-06-10T21:06:22.512Z,22.60
2019-06-10T21:08:51.179Z,22.60
2019-06-10T21:11:18.462Z,22.60
2019-06-10T21:13:48.618Z,22.60
2019-06-10T21:16:14.351Z,22.60
2019-06-10T21:18:45.345Z,22.60
2019-06-10T21:21:10.269Z,22.60
2019-06-10T21:23:37.392Z,22.60
2019-06-10T21:26:04.495Z,22.60
2019-06-10T21:28:32.648Z,22.60
2019-06-10T21:31:02.502Z,22.60
2019-06-10T21:33:29.070Z,22.60
2019-06-10T21:35:56.268Z,22.60
2019-06-10T21:38:23.332Z,22.60
2019-06-10T21:40:52.752Z,22.60
2019-06-10T21:43:19.219Z,22.60
2019-06-10T21:45:51.256Z,22.60
2019-06-10T21:48:15.303Z,22.60
2019-06-10T21:50:45.260Z,22.60
2019-06-10T21:53:13.056Z,22.60
2019-06-10T21:55:42.060Z,22.60
2019-06-10T21:58:08.704Z,22.60
2019-06-10T22:00:51.940Z,22.60
2019-06-10T22:03:06.400Z,22.60
2019-06-10T22:05:33.498Z,22.60
2019-06-10T22:08:02.981Z,22.60
2019-06-10T22:10:29.473Z,22.60
2019-06-10T22:12:56.610Z,22.60
2019-06-10T22:15:23.743Z,22.50
2019-06-10T22:17:52.959Z,22.50
2019-06-10T22:20:20.080Z,22.50
2019-06-10T22:22:48.549Z,22.50
2019-06-10T22:25:15.768Z,22.60
2019-06-10T22:27:42.831Z,22.60
2019-06-10T22:30:11.618Z,22.50
2019-06-10T22:32:39.073Z,22.50
2019-06-10T22:35:06.239Z,22.60
2019-06-10T22:37:33.320Z,22.50
2019-06-10T22:40:03.073Z,22.60
2019-06-10T22:42:29.175Z,22.50
2019-06-10T22:44:58.005Z,22.60
2019-06-10T22:47:25.263Z,22.60
2019-06-10T22:49:54.758Z,22.50
2019-06-10T22:52:23.128Z,22.50
2019-06-10T22:54:52.169Z,22.50
2019-06-10T22:57:18.991Z,22.60
2019-06-10T22:59:46.296Z,22.60
2019-06-10T23:02:13.656Z,22.60
2019-06-10T23:04:43.228Z,22.50
2019-06-10T23:07:13.070Z,22.50
2019-06-10T23:09:38.770Z,22.60
2019-06-10T23:12:05.884Z,22.50
2019-06-10T23:14:33.341Z,22.50
2019-06-10T23:17:02.925Z,22.50
2019-06-10T23:19:29.588Z,22.50
2019-06-10T23:21:58.368Z,22.50
2019-06-10T23:24:26.471Z,22.50
2019-06-10T23:26:53.935Z,22.60
2019-06-10T23:29:22.756Z,22.60
2019-06-10T23:34:36.657Z,22.50
2019-06-10T23:37:03.738Z,22.60
2019-06-10T23:39:33.488Z,22.50
2019-06-10T23:42:01.050Z,22.50
2019-06-10T23:44:28.280Z,22.50
2019-06-10T23:46:55.351Z,22.60
2019-06-10T23:49:22.855Z,22.50
2019-06-10T23:51:52.087Z,22.50
2019-06-10T23:54:19.020Z,22.50
2019-06-10T23:56:46.085Z,22.60
2019-06-10T23:59:13.239Z,22.50
